sensor_id;sensor_type;location;lat;lon;timestamp;temperature;humidity
13642;DHT22;6894;52.196;9.904;2023-02-28T00:01:38;0.80;1.00
13642;DHT22;6894;52.196;9.904;2023-02-28T00:04:05;0.70;1.00
13642;DHT22;6894;52.196;9.904;2023-02-28T00:06:34;1.00;1.00
13642;DHT22;6894;52.196;9.904;2023-02-28T00:09:02;0.80;1.00
13642;DHT22;6894;52.196;9.904;2023-02-28T00:11:29;0.80;1.00
13642;DHT22;6894;52.196;9.904;2023-02-28T00:13:56;0.70;59.90
13642;DHT22;6894;52.196;9.904;2023-02-28T00:16:23;0.70;99.90
13642;DHT22;6894;52.196;9.904;2023-02-28T00:18:50;0.60;99.90
13642;DHT22;6894;52.196;9.904;2023-02-28T00:21:18;0.60;99.90
13642;DHT22;6894;52.196;9.904;2023-02-28T00:23:45;0.60;99.90
13642;DHT22;6894;52.196;9.904;2023-02-28T00:26:13;0.60;99.90
13642;DHT22;6894;52.196;9.904;2023-02-28T00:28:40;0.60;1.00
13642;DHT22;6894;52.196;9.904;2023-02-28T00:31:07;0.60;1.00
13642;DHT22;6894;52.196;9.904;2023-02-28T00:33:34;0.70;1.00
13642;DHT22;6894;52.196;9.904;2023-02-28T00:36:02;0.50;1.00
13642;DHT22;6894;52.196;9.904;2023-02-28T00:38:29;0.40;99.90
13642;DHT22;6894;52.196;9.904;2023-02-28T00:40:56;0.40;99.90
13642;DHT22;6894;52.196;9.904;2023-02-28T00:43:25;0.30;99.90
13642;DHT22;6894;52.196;9.904;2023-02-28T00:45:52;0.30;99.90
13642;DHT22;6894;52.196;9.904;2023-02-28T00:48:18;0.20;1.00
13642;DHT22;6894;52.196;9.904;2023-02-28T00:50:48;0.20;1.00
13642;DHT22;6894;52.196;9.904;2023-02-28T00:53:15;0.10;1.00
13642;DHT22;6894;52.196;9.904;2023-02-28T00:55:41;0.10;1.00
13642;DHT22;6894;52.196;9.904;2023-02-28T00:58:08;0.00;1.00
13642;DHT22;6894;52.196;9.904;2023-02-28T01:00:36;-0.10;1.00
13642;DHT22;6894;52.196;9.904;2023-02-28T01:03:03;-0.10;1.00
13642;DHT22;6894;52.196;9.904;2023-02-28T01:05:30;-0.10;1.00
13642;DHT22;6894;52.196;9.904;2023-02-28T01:07:56;-0.10;1.00
13642;DHT22;6894;52.196;9.904;2023-02-28T01:10:24;-0.20;1.00
13642;DHT22;6894;52.196;9.904;2023-02-28T01:12:51;-0.20;1.00
13642;DHT22;6894;52.196;9.904;2023-02-28T01:15:18;-0.20;1.00
13642;DHT22;6894;52.196;9.904;2023-02-28T01:17:46;-0.30;1.00
13642;DHT22;6894;52.196;9.904;2023-02-28T01:20:13;-0.30;1.00
13642;DHT22;6894;52.196;9.904;2023-02-28T01:22:40;-0.40;1.00
13642;DHT22;6894;52.196;9.904;2023-02-28T01:25:07;-0.40;1.00
13642;DHT22;6894;52.196;9.904;2023-02-28T01:27:34;-0.50;1.00
13642;DHT22;6894;52.196;9.904;2023-02-28T01:30:01;-0.50;1.00
13642;DHT22;6894;52.196;9.904;2023-02-28T01:32:28;-0.30;1.00
13642;DHT22;6894;52.196;9.904;2023-02-28T01:34:56;-0.60;1.00
13642;DHT22;6894;52.196;9.904;2023-02-28T01:37:23;-0.60;1.00
13642;DHT22;6894;52.196;9.904;2023-02-28T01:39:49;-0.70;1.00
13642;DHT22;6894;52.196;9.904;2023-02-28T01:42:16;-0.70;1.00
13642;DHT22;6894;52.196;9.904;2023-02-28T01:45:02;-0.70;1.00
13642;DHT22;6894;52.196;9.904;2023-02-28T01:47:31;-0.70;1.00
13642;DHT22;6894;52.196;9.904;2023-02-28T01:50:02;-0.70;1.00
13642;DHT22;6894;52.196;9.904;2023-02-28T01:52:31;-0.70;1.00
13642;DHT22;6894;52.196;9.904;2023-02-28T01:54:59;-0.80;1.00
13642;DHT22;6894;52.196;9.904;2023-02-28T01:57:30;-0.80;1.00
13642;DHT22;6894;52.196;9.904;2023-02-28T02:00:05;-0.60;1.00
13642;DHT22;6894;52.196;9.904;2023-02-28T02:02:34;-0.90;1.00
13642;DHT22;6894;52.196;9.904;2023-02-28T02:05:06;-0.90;1.00
13642;DHT22;6894;52.196;9.904;2023-02-28T02:07:35;-1.00;1.00
13642;DHT22;6894;52.196;9.904;2023-02-28T02:10:05;-1.00;1.00
13642;DHT22;6894;52.196;9.904;2023-02-28T02:12:51;-1.00;1.00
13642;DHT22;6894;52.196;9.904;2023-02-28T02:15:24;-1.10;1.00
13642;DHT22;6894;52.196;9.904;2023-02-28T02:17:53;-1.10;1.00
13642;DHT22;6894;52.196;9.904;2023-02-28T02:20:58;-1.20;1.00
13642;DHT22;6894;52.196;9.904;2023-02-28T02:23:53;-1.20;1.00
13642;DHT22;6894;52.196;9.904;2023-02-28T02:26:58;-1.20;1.00
13642;DHT22;6894;52.196;9.904;2023-02-28T02:29:46;-1.20;1.00
13642;DHT22;6894;52.196;9.904;2023-02-28T02:32:31;-1.20;1.00
13642;DHT22;6894;52.196;9.904;2023-02-28T02:35:12;-1.30;1.00
13642;DHT22;6894;52.196;9.904;2023-02-28T02:37:44;-1.30;1.00
13642;DHT22;6894;52.196;9.904;2023-02-28T02:40:16;-1.20;1.00
13642;DHT22;6894;52.196;9.904;2023-02-28T02:42:50;-1.20;1.00
13642;DHT22;6894;52.196;9.904;2023-02-28T02:45:21;-1.30;1.00
13642;DHT22;6894;52.196;9.904;2023-02-28T02:47:49;-1.30;1.00
13642;DHT22;6894;52.196;9.904;2023-02-28T02:50:22;-1.30;1.00
13642;DHT22;6894;52.196;9.904;2023-02-28T02:52:53;-1.30;1.00
13642;DHT22;6894;52.196;9.904;2023-02-28T02:55:22;-1.30;1.00
13642;DHT22;6894;52.196;9.904;2023-02-28T02:57:51;-1.40;1.00
13642;DHT22;6894;52.196;9.904;2023-02-28T03:00:23;-1.30;1.00
13642;DHT22;6894;52.196;9.904;2023-02-28T03:02:53;-1.40;1.00
13642;DHT22;6894;52.196;9.904;2023-02-28T03:05:26;-1.40;1.00
13642;DHT22;6894;52.196;9.904;2023-02-28T03:07:53;-1.40;1.00
13642;DHT22;6894;52.196;9.904;2023-02-28T03:10:41;-1.40;1.00
13642;DHT22;6894;52.196;9.904;2023-02-28T03:13:19;-1.50;1.00
13642;DHT22;6894;52.196;9.904;2023-02-28T03:16:03;-1.40;1.00
13642;DHT22;6894;52.196;9.904;2023-02-28T03:18:42;-1.50;1.00
13642;DHT22;6894;52.196;9.904;2023-02-28T03:21:16;-1.60;1.00
13642;DHT22;6894;52.196;9.904;2023-02-28T03:23:53;-1.20;1.00
13642;DHT22;6894;52.196;9.904;2023-02-28T03:26:23;-1.60;1.00
13642;DHT22;6894;52.196;9.904;2023-02-28T03:28:56;-1.70;1.00
13642;DHT22;6894;52.196;9.904;2023-02-28T03:31:30;-1.70;1.00
13642;DHT22;6894;52.196;9.904;2023-02-28T03:34:01;-1.70;1.00
13642;DHT22;6894;52.196;9.904;2023-02-28T03:36:33;-1.80;1.00
13642;DHT22;6894;52.196;9.904;2023-02-28T03:39:13;-1.70;1.00
13642;DHT22;6894;52.196;9.904;2023-02-28T03:41:43;-1.70;1.00
13642;DHT22;6894;52.196;9.904;2023-02-28T03:44:15;-1.40;1.00
13642;DHT22;6894;52.196;9.904;2023-02-28T03:46:46;-1.80;1.00
13642;DHT22;6894;52.196;9.904;2023-02-28T03:49:17;-1.40;1.00
13642;DHT22;6894;52.196;9.904;2023-02-28T03:51:47;-1.90;1.00
13642;DHT22;6894;52.196;9.904;2023-02-28T03:54:18;-1.80;1.00
13642;DHT22;6894;52.196;9.904;2023-02-28T03:56:50;-1.80;1.00
13642;DHT22;6894;52.196;9.904;2023-02-28T03:59:21;-1.90;1.00
13642;DHT22;6894;52.196;9.904;2023-02-28T04:01:50;-1.80;1.00
13642;DHT22;6894;52.196;9.904;2023-02-28T04:04:17;-1.90;1.00
13642;DHT22;6894;52.196;9.904;2023-02-28T04:06:45;-1.70;1.00
13642;DHT22;6894;52.196;9.904;2023-02-28T04:09:15;-1.90;1.00
13642;DHT22;6894;52.196;9.904;2023-02-28T04:11:44;-2.00;1.00
13642;DHT22;6894;52.196;9.904;2023-02-28T04:14:12;-2.00;1.00
13642;DHT22;6894;52.196;9.904;2023-02-28T04:16:40;-2.00;1.00
13642;DHT22;6894;52.196;9.904;2023-02-28T04:19:09;-2.10;1.00
13642;DHT22;6894;52.196;9.904;2023-02-28T04:21:38;-2.10;1.00
13642;DHT22;6894;52.196;9.904;2023-02-28T04:24:07;-2.20;1.00
13642;DHT22;6894;52.196;9.904;2023-02-28T04:26:40;-2.20;1.00
13642;DHT22;6894;52.196;9.904;2023-02-28T04:29:10;-2.10;1.00
13642;DHT22;6894;52.196;9.904;2023-02-28T04:31:37;-2.00;1.00
13642;DHT22;6894;52.196;9.904;2023-02-28T04:34:04;-2.20;1.00
13642;DHT22;6894;52.196;9.904;2023-02-28T04:36:31;-2.20;1.00
13642;DHT22;6894;52.196;9.904;2023-02-28T04:38:58;-2.20;1.00
13642;DHT22;6894;52.196;9.904;2023-02-28T04:41:26;-2.20;1.00
13642;DHT22;6894;52.196;9.904;2023-02-28T04:43:53;-2.20;1.00
13642;DHT22;6894;52.196;9.904;2023-02-28T04:46:22;-0.80;1.00
13642;DHT22;6894;52.196;9.904;2023-02-28T04:48:49;-2.10;1.00
13642;DHT22;6894;52.196;9.904;2023-02-28T04:51:17;-1.90;1.00
13642;DHT22;6894;52.196;9.904;2023-02-28T04:53:45;-2.10;1.00
13642;DHT22;6894;52.196;9.904;2023-02-28T04:56:14;-2.00;1.00
13642;DHT22;6894;52.196;9.904;2023-02-28T04:58:42;-2.00;1.00
13642;DHT22;6894;52.196;9.904;2023-02-28T05:01:18;-1.90;1.00
13642;DHT22;6894;52.196;9.904;2023-02-28T05:03:45;-1.90;1.00
13642;DHT22;6894;52.196;9.904;2023-02-28T05:06:12;-1.50;1.00
13642;DHT22;6894;52.196;9.904;2023-02-28T05:08:39;-1.80;1.00
13642;DHT22;6894;52.196;9.904;2023-02-28T05:11:12;-1.70;1.00
13642;DHT22;6894;52.196;9.904;2023-02-28T05:13:39;-1.70;1.00
13642;DHT22;6894;52.196;9.904;2023-02-28T05:16:07;-1.70;1.00
13642;DHT22;6894;52.196;9.904;2023-02-28T05:18:34;-1.70;1.00
13642;DHT22;6894;52.196;9.904;2023-02-28T05:21:01;-1.70;1.00
13642;DHT22;6894;52.196;9.904;2023-02-28T05:23:28;-1.60;1.00
13642;DHT22;6894;52.196;9.904;2023-02-28T05:25:56;-1.60;10.00
13642;DHT22;6894;52.196;9.904;2023-02-28T05:28:23;-1.60;19.30
13642;DHT22;6894;52.196;9.904;2023-02-28T05:30:50;-1.60;21.30
13642;DHT22;6894;52.196;9.904;2023-02-28T05:33:18;-1.60;24.40
13642;DHT22;6894;52.196;9.904;2023-02-28T05:35:45;-1.60;29.80
13642;DHT22;6894;52.196;9.904;2023-02-28T05:38:11;-1.70;37.50
13642;DHT22;6894;52.196;9.904;2023-02-28T05:40:38;-1.70;46.60
13642;DHT22;6894;52.196;9.904;2023-02-28T05:43:05;-1.80;49.00
13642;DHT22;6894;52.196;9.904;2023-02-28T05:45:32;-1.70;70.20
13642;DHT22;6894;52.196;9.904;2023-02-28T05:47:59;-1.60;90.20
13642;DHT22;6894;52.196;9.904;2023-02-28T05:50:27;-1.80;95.80
13642;DHT22;6894;52.196;9.904;2023-02-28T05:52:54;-1.80;99.90
13642;DHT22;6894;52.196;9.904;2023-02-28T05:55:20;-1.90;99.90
13642;DHT22;6894;52.196;9.904;2023-02-28T05:57:47;-1.80;99.90
13642;DHT22;6894;52.196;9.904;2023-02-28T06:00:14;-1.80;99.90
13642;DHT22;6894;52.196;9.904;2023-02-28T06:02:43;-1.90;99.90
13642;DHT22;6894;52.196;9.904;2023-02-28T06:05:14;-1.90;99.90
13642;DHT22;6894;52.196;9.904;2023-02-28T06:07:42;-1.90;99.90
13642;DHT22;6894;52.196;9.904;2023-02-28T06:10:10;-1.90;99.90
13642;DHT22;6894;52.196;9.904;2023-02-28T06:12:37;-1.90;99.90
13642;DHT22;6894;52.196;9.904;2023-02-28T06:15:05;-1.90;99.90
13642;DHT22;6894;52.196;9.904;2023-02-28T06:17:31;-1.90;99.90
13642;DHT22;6894;52.196;9.904;2023-02-28T06:19:58;-1.90;99.90
13642;DHT22;6894;52.196;9.904;2023-02-28T06:22:25;-1.90;99.90
13642;DHT22;6894;52.196;9.904;2023-02-28T06:24:53;-2.00;99.90
13642;DHT22;6894;52.196;9.904;2023-02-28T06:27:20;-2.10;99.90
13642;DHT22;6894;52.196;9.904;2023-02-28T06:29:47;-2.20;99.90
13642;DHT22;6894;52.196;9.904;2023-02-28T06:32:14;-2.00;99.90
13642;DHT22;6894;52.196;9.904;2023-02-28T06:34:41;-2.30;99.90
13642;DHT22;6894;52.196;9.904;2023-02-28T06:37:07;-2.20;99.90
13642;DHT22;6894;52.196;9.904;2023-02-28T06:39:34;-2.20;99.90
13642;DHT22;6894;52.196;9.904;2023-02-28T06:42:03;-2.20;99.90
13642;DHT22;6894;52.196;9.904;2023-02-28T06:44:30;-2.20;99.90
13642;DHT22;6894;52.196;9.904;2023-02-28T06:47:01;-2.20;99.90
13642;DHT22;6894;52.196;9.904;2023-02-28T06:49:29;-2.10;99.90
13642;DHT22;6894;52.196;9.904;2023-02-28T06:51:56;-2.10;99.90
13642;DHT22;6894;52.196;9.904;2023-02-28T06:54:22;-2.10;99.90
13642;DHT22;6894;52.196;9.904;2023-02-28T06:56:49;-2.10;99.90
13642;DHT22;6894;52.196;9.904;2023-02-28T06:59:18;-2.00;99.90
13642;DHT22;6894;52.196;9.904;2023-02-28T07:01:45;-1.80;99.90
13642;DHT22;6894;52.196;9.904;2023-02-28T07:04:12;-1.90;99.90
13642;DHT22;6894;52.196;9.904;2023-02-28T07:06:39;-1.70;99.90
13642;DHT22;6894;52.196;9.904;2023-02-28T07:09:06;-1.80;99.90
13642;DHT22;6894;52.196;9.904;2023-02-28T07:11:33;-1.60;99.90
13642;DHT22;6894;52.196;9.904;2023-02-28T07:14:00;-1.60;99.90
13642;DHT22;6894;52.196;9.904;2023-02-28T07:16:28;-1.60;99.90
13642;DHT22;6894;52.196;9.904;2023-02-28T07:18:55;-1.50;99.90
13642;DHT22;6894;52.196;9.904;2023-02-28T07:21:22;-1.40;99.90
13642;DHT22;6894;52.196;9.904;2023-02-28T07:23:49;-1.20;99.90
13642;DHT22;6894;52.196;9.904;2023-02-28T07:26:18;-1.10;99.90
13642;DHT22;6894;52.196;9.904;2023-02-28T07:28:46;-0.80;99.90
13642;DHT22;6894;52.196;9.904;2023-02-28T07:31:14;-0.60;99.90
13642;DHT22;6894;52.196;9.904;2023-02-28T07:33:42;-0.30;99.90
13642;DHT22;6894;52.196;9.904;2023-02-28T07:36:11;-0.20;99.90
13642;DHT22;6894;52.196;9.904;2023-02-28T07:38:41;0.00;99.90
13642;DHT22;6894;52.196;9.904;2023-02-28T07:41:09;0.10;99.90
13642;DHT22;6894;52.196;9.904;2023-02-28T07:43:36;0.20;99.90
13642;DHT22;6894;52.196;9.904;2023-02-28T07:46:04;0.40;99.90
13642;DHT22;6894;52.196;9.904;2023-02-28T07:48:31;0.50;93.20
13642;DHT22;6894;52.196;9.904;2023-02-28T07:51:00;0.70;19.40
13642;DHT22;6894;52.196;9.904;2023-02-28T07:53:27;0.80;1.00
13642;DHT22;6894;52.196;9.904;2023-02-28T07:55:55;0.90;1.00
13642;DHT22;6894;52.196;9.904;2023-02-28T07:58:22;1.20;1.00
13642;DHT22;6894;52.196;9.904;2023-02-28T08:00:49;1.60;1.00
13642;DHT22;6894;52.196;9.904;2023-02-28T08:03:17;1.90;1.00
13642;DHT22;6894;52.196;9.904;2023-02-28T08:05:44;2.20;99.90
13642;DHT22;6894;52.196;9.904;2023-02-28T08:08:12;2.60;1.00
13642;DHT22;6894;52.196;9.904;2023-02-28T08:10:39;3.00;28.90
13642;DHT22;6894;52.196;9.904;2023-02-28T08:13:06;3.30;1.00
13642;DHT22;6894;52.196;9.904;2023-02-28T08:15:33;3.90;1.00
13642;DHT22;6894;52.196;9.904;2023-02-28T08:18:00;4.20;1.00
13642;DHT22;6894;52.196;9.904;2023-02-28T08:20:26;4.50;1.00
13642;DHT22;6894;52.196;9.904;2023-02-28T08:22:53;4.70;1.00
13642;DHT22;6894;52.196;9.904;2023-02-28T08:25:21;5.10;1.00
13642;DHT22;6894;52.196;9.904;2023-02-28T08:27:50;5.40;1.00
13642;DHT22;6894;52.196;9.904;2023-02-28T08:30:18;5.60;1.00
13642;DHT22;6894;52.196;9.904;2023-02-28T08:32:45;5.70;1.00
13642;DHT22;6894;52.196;9.904;2023-02-28T08:35:11;6.00;99.90
13642;DHT22;6894;52.196;9.904;2023-02-28T08:37:38;6.00;99.90
13642;DHT22;6894;52.196;9.904;2023-02-28T08:40:06;6.20;99.90
13642;DHT22;6894;52.196;9.904;2023-02-28T08:42:35;6.30;1.00
13642;DHT22;6894;52.196;9.904;2023-02-28T08:45:02;6.50;1.00
13642;DHT22;6894;52.196;9.904;2023-02-28T08:47:29;6.50;1.00
13642;DHT22;6894;52.196;9.904;2023-02-28T08:49:56;6.70;1.00
13642;DHT22;6894;52.196;9.904;2023-02-28T08:52:23;6.90;99.90
13642;DHT22;6894;52.196;9.904;2023-02-28T08:54:49;6.80;99.90
13642;DHT22;6894;52.196;9.904;2023-02-28T08:57:16;6.70;45.90
13642;DHT22;6894;52.196;9.904;2023-02-28T08:59:44;6.80;75.90
13642;DHT22;6894;52.196;9.904;2023-02-28T09:02:12;6.80;49.60
13642;DHT22;6894;52.196;9.904;2023-02-28T09:04:39;6.90;1.00
13642;DHT22;6894;52.196;9.904;2023-02-28T09:07:07;6.90;1.00
13642;DHT22;6894;52.196;9.904;2023-02-28T09:09:33;7.20;52.60
13642;DHT22;6894;52.196;9.904;2023-02-28T09:12:00;7.20;1.00
13642;DHT22;6894;52.196;9.904;2023-02-28T09:14:27;7.30;1.00
13642;DHT22;6894;52.196;9.904;2023-02-28T09:16:55;7.30;1.00
13642;DHT22;6894;52.196;9.904;2023-02-28T09:19:22;7.20;1.00
13642;DHT22;6894;52.196;9.904;2023-02-28T09:21:49;7.30;1.00
13642;DHT22;6894;52.196;9.904;2023-02-28T09:24:15;7.50;1.00
13642;DHT22;6894;52.196;9.904;2023-02-28T09:26:43;7.60;1.00
13642;DHT22;6894;52.196;9.904;2023-02-28T09:29:10;7.80;1.00
13642;DHT22;6894;52.196;9.904;2023-02-28T09:31:37;7.80;1.00
13642;DHT22;6894;52.196;9.904;2023-02-28T09:34:05;7.00;1.00
13642;DHT22;6894;52.196;9.904;2023-02-28T09:36:32;6.70;99.90
13642;DHT22;6894;52.196;9.904;2023-02-28T09:39:00;6.80;99.90
13642;DHT22;6894;52.196;9.904;2023-02-28T09:41:27;7.00;99.90
13642;DHT22;6894;52.196;9.904;2023-02-28T09:44:02;7.00;74.00
13642;DHT22;6894;52.196;9.904;2023-02-28T09:46:33;6.90;12.90
13642;DHT22;6894;52.196;9.904;2023-02-28T09:49:01;7.20;87.50
13642;DHT22;6894;52.196;9.904;2023-02-28T09:51:40;7.70;99.90
13642;DHT22;6894;52.196;9.904;2023-02-28T09:54:14;7.90;1.00
13642;DHT22;6894;52.196;9.904;2023-02-28T09:56:45;8.00;1.00
13642;DHT22;6894;52.196;9.904;2023-02-28T09:59:26;7.60;1.00
13642;DHT22;6894;52.196;9.904;2023-02-28T10:02:00;7.30;1.00
13642;DHT22;6894;52.196;9.904;2023-02-28T10:04:40;7.60;1.00
13642;DHT22;6894;52.196;9.904;2023-02-28T10:07:17;8.10;1.00
13642;DHT22;6894;52.196;9.904;2023-02-28T10:09:47;8.50;1.00
13642;DHT22;6894;52.196;9.904;2023-02-28T10:12:16;8.90;1.00
13642;DHT22;6894;52.196;9.904;2023-02-28T10:14:46;9.00;1.00
13642;DHT22;6894;52.196;9.904;2023-02-28T10:17:17;9.10;1.00
13642;DHT22;6894;52.196;9.904;2023-02-28T10:19:55;9.20;1.00
13642;DHT22;6894;52.196;9.904;2023-02-28T10:22:27;9.50;1.00
13642;DHT22;6894;52.196;9.904;2023-02-28T10:24:57;9.40;1.00
13642;DHT22;6894;52.196;9.904;2023-02-28T10:27:30;9.60;1.00
13642;DHT22;6894;52.196;9.904;2023-02-28T10:29:58;9.50;1.00
13642;DHT22;6894;52.196;9.904;2023-02-28T10:32:29;9.70;1.00
13642;DHT22;6894;52.196;9.904;2023-02-28T10:35:00;9.70;1.00
13642;DHT22;6894;52.196;9.904;2023-02-28T10:37:28;10.00;1.00
13642;DHT22;6894;52.196;9.904;2023-02-28T10:39:57;10.30;1.00
13642;DHT22;6894;52.196;9.904;2023-02-28T10:42:25;10.50;1.00
13642;DHT22;6894;52.196;9.904;2023-02-28T10:45:09;10.40;1.00
13642;DHT22;6894;52.196;9.904;2023-02-28T10:47:48;9.70;1.00
13642;DHT22;6894;52.196;9.904;2023-02-28T10:50:28;10.00;1.00
13642;DHT22;6894;52.196;9.904;2023-02-28T10:53:07;10.20;1.00
13642;DHT22;6894;52.196;9.904;2023-02-28T10:55:35;10.50;1.00
13642;DHT22;6894;52.196;9.904;2023-02-28T10:58:02;10.50;1.00
13642;DHT22;6894;52.196;9.904;2023-02-28T11:00:33;10.60;1.00
13642;DHT22;6894;52.196;9.904;2023-02-28T11:03:01;10.80;1.00
13642;DHT22;6894;52.196;9.904;2023-02-28T11:05:30;10.70;1.00
13642;DHT22;6894;52.196;9.904;2023-02-28T11:08:04;10.60;1.00
13642;DHT22;6894;52.196;9.904;2023-02-28T11:10:32;10.70;1.00
13642;DHT22;6894;52.196;9.904;2023-02-28T11:13:00;10.90;1.00
13642;DHT22;6894;52.196;9.904;2023-02-28T11:15:29;10.90;1.00
13642;DHT22;6894;52.196;9.904;2023-02-28T11:17:58;10.80;1.00
13642;DHT22;6894;52.196;9.904;2023-02-28T11:20:28;10.80;1.00
13642;DHT22;6894;52.196;9.904;2023-02-28T11:22:58;10.30;1.00
13642;DHT22;6894;52.196;9.904;2023-02-28T11:25:28;10.10;1.00
13642;DHT22;6894;52.196;9.904;2023-02-28T11:27:58;10.60;1.00
13642;DHT22;6894;52.196;9.904;2023-02-28T11:30:33;10.80;1.00
13642;DHT22;6894;52.196;9.904;2023-02-28T11:33:01;10.70;1.00
13642;DHT22;6894;52.196;9.904;2023-02-28T11:35:31;10.20;1.00
13642;DHT22;6894;52.196;9.904;2023-02-28T11:38:01;9.80;1.00
13642;DHT22;6894;52.196;9.904;2023-02-28T11:40:35;9.40;1.00
13642;DHT22;6894;52.196;9.904;2023-02-28T11:43:12;9.50;1.00
13642;DHT22;6894;52.196;9.904;2023-02-28T11:46:03;10.10;1.00
13642;DHT22;6894;52.196;9.904;2023-02-28T11:48:40;10.60;1.00
13642;DHT22;6894;52.196;9.904;2023-02-28T11:51:15;12.00;1.00
13642;DHT22;6894;52.196;9.904;2023-02-28T11:54:00;11.30;1.00
13642;DHT22;6894;52.196;9.904;2023-02-28T11:56:32;11.60;1.00
13642;DHT22;6894;52.196;9.904;2023-02-28T11:59:10;11.60;1.00
13642;DHT22;6894;52.196;9.904;2023-02-28T12:01:47;11.00;99.90
13642;DHT22;6894;52.196;9.904;2023-02-28T12:04:26;10.80;99.90
13642;DHT22;6894;52.196;9.904;2023-02-28T12:07:06;10.90;1.00
13642;DHT22;6894;52.196;9.904;2023-02-28T12:09:47;10.50;99.90
13642;DHT22;6894;52.196;9.904;2023-02-28T12:12:37;9.40;1.00
13642;DHT22;6894;52.196;9.904;2023-02-28T12:15:25;9.50;1.00
13642;DHT22;6894;52.196;9.904;2023-02-28T12:18:03;9.30;1.00
13642;DHT22;6894;52.196;9.904;2023-02-28T12:20:37;10.10;1.00
13642;DHT22;6894;52.196;9.904;2023-02-28T12:23:24;10.60;1.00
13642;DHT22;6894;52.196;9.904;2023-02-28T12:26:00;11.10;1.00
13642;DHT22;6894;52.196;9.904;2023-02-28T12:28:32;11.80;1.00
13642;DHT22;6894;52.196;9.904;2023-02-28T12:31:03;12.10;99.90
13642;DHT22;6894;52.196;9.904;2023-02-28T12:33:36;12.00;99.90
13642;DHT22;6894;52.196;9.904;2023-02-28T12:36:09;12.50;99.90
13642;DHT22;6894;52.196;9.904;2023-02-28T12:38:40;12.50;99.90
13642;DHT22;6894;52.196;9.904;2023-02-28T12:41:13;12.50;99.90
13642;DHT22;6894;52.196;9.904;2023-02-28T12:43:45;12.70;99.90
13642;DHT22;6894;52.196;9.904;2023-02-28T12:46:16;12.60;99.90
13642;DHT22;6894;52.196;9.904;2023-02-28T12:48:47;12.50;99.90
13642;DHT22;6894;52.196;9.904;2023-02-28T12:51:16;12.80;99.90
13642;DHT22;6894;52.196;9.904;2023-02-28T12:53:53;13.10;99.90
13642;DHT22;6894;52.196;9.904;2023-02-28T12:56:32;13.10;99.90
13642;DHT22;6894;52.196;9.904;2023-02-28T12:59:03;13.40;99.90
13642;DHT22;6894;52.196;9.904;2023-02-28T13:01:42;13.50;99.90
13642;DHT22;6894;52.196;9.904;2023-02-28T13:04:53;13.30;99.90
13642;DHT22;6894;52.196;9.904;2023-02-28T13:10:16;12.00;99.90
13642;DHT22;6894;52.196;9.904;2023-02-28T13:12:49;11.60;99.90
13642;DHT22;6894;52.196;9.904;2023-02-28T13:15:19;11.10;99.90
13642;DHT22;6894;52.196;9.904;2023-02-28T13:17:51;10.70;99.90
13642;DHT22;6894;52.196;9.904;2023-02-28T13:20:20;10.50;99.90
13642;DHT22;6894;52.196;9.904;2023-02-28T13:22:49;9.90;99.90
13642;DHT22;6894;52.196;9.904;2023-02-28T13:31:20;9.00;1.00
13642;DHT22;6894;52.196;9.904;2023-02-28T13:34:13;9.60;1.00
13642;DHT22;6894;52.196;9.904;2023-02-28T13:36:40;10.30;1.00
13642;DHT22;6894;52.196;9.904;2023-02-28T13:42:30;10.20;1.00
13642;DHT22;6894;52.196;9.904;2023-02-28T13:45:23;10.40;99.90
13642;DHT22;6894;52.196;9.904;2023-02-28T13:47:58;10.70;99.90
13642;DHT22;6894;52.196;9.904;2023-02-28T13:50:33;10.80;99.90
13642;DHT22;6894;52.196;9.904;2023-02-28T13:56:25;11.20;99.90
13642;DHT22;6894;52.196;9.904;2023-02-28T13:58:56;11.10;99.90
13642;DHT22;6894;52.196;9.904;2023-02-28T14:01:36;10.70;99.90
13642;DHT22;6894;52.196;9.904;2023-02-28T14:07:20;11.20;99.90
13642;DHT22;6894;52.196;9.904;2023-02-28T14:09:55;11.60;99.90
13642;DHT22;6894;52.196;9.904;2023-02-28T14:18:22;11.30;99.90
13642;DHT22;6894;52.196;9.904;2023-02-28T14:20:54;11.00;99.90
13642;DHT22;6894;52.196;9.904;2023-02-28T14:23:43;11.10;99.90
13642;DHT22;6894;52.196;9.904;2023-02-28T14:26:25;11.60;99.90
13642;DHT22;6894;52.196;9.904;2023-02-28T14:29:11;11.80;99.90
13642;DHT22;6894;52.196;9.904;2023-02-28T14:31:46;11.60;99.90
13642;DHT22;6894;52.196;9.904;2023-02-28T14:34:31;11.60;99.90
13642;DHT22;6894;52.196;9.904;2023-02-28T14:37:03;11.30;99.90
13642;DHT22;6894;52.196;9.904;2023-02-28T14:39:31;10.80;99.90
13642;DHT22;6894;52.196;9.904;2023-02-28T14:41:59;10.20;99.90
13642;DHT22;6894;52.196;9.904;2023-02-28T14:44:30;9.70;99.90
13642;DHT22;6894;52.196;9.904;2023-02-28T14:46:59;9.50;99.90
13642;DHT22;6894;52.196;9.904;2023-02-28T14:49:31;9.80;99.90
13642;DHT22;6894;52.196;9.904;2023-02-28T14:52:06;10.10;99.90
13642;DHT22;6894;52.196;9.904;2023-02-28T14:54:35;10.30;99.90
13642;DHT22;6894;52.196;9.904;2023-02-28T14:57:02;10.40;99.90
13642;DHT22;6894;52.196;9.904;2023-02-28T14:59:31;10.30;99.90
13642;DHT22;6894;52.196;9.904;2023-02-28T15:02:19;10.20;99.90
13642;DHT22;6894;52.196;9.904;2023-02-28T15:04:53;10.20;99.90
13642;DHT22;6894;52.196;9.904;2023-02-28T15:07:22;9.60;99.90
13642;DHT22;6894;52.196;9.904;2023-02-28T15:10:07;9.30;99.90
13642;DHT22;6894;52.196;9.904;2023-02-28T15:12:35;8.80;99.90
13642;DHT22;6894;52.196;9.904;2023-02-28T15:15:02;8.80;99.90
13642;DHT22;6894;52.196;9.904;2023-02-28T15:17:29;9.00;99.90
13642;DHT22;6894;52.196;9.904;2023-02-28T15:19:56;9.40;99.90
13642;DHT22;6894;52.196;9.904;2023-02-28T15:22:28;9.10;99.90
13642;DHT22;6894;52.196;9.904;2023-02-28T15:24:58;9.10;99.90
13642;DHT22;6894;52.196;9.904;2023-02-28T15:27:27;9.00;99.90
13642;DHT22;6894;52.196;9.904;2023-02-28T15:29:58;8.90;99.90
13642;DHT22;6894;52.196;9.904;2023-02-28T15:32:29;8.40;99.90
13642;DHT22;6894;52.196;9.904;2023-02-28T15:34:57;8.00;1.00
13642;DHT22;6894;52.196;9.904;2023-02-28T15:37:39;8.00;1.00
13642;DHT22;6894;52.196;9.904;2023-02-28T15:40:13;8.10;1.00
13642;DHT22;6894;52.196;9.904;2023-02-28T15:42:40;8.00;1.00
13642;DHT22;6894;52.196;9.904;2023-02-28T15:45:27;8.00;1.00
13642;DHT22;6894;52.196;9.904;2023-02-28T15:47:54;7.90;1.00
13642;DHT22;6894;52.196;9.904;2023-02-28T15:50:22;7.80;1.00
13642;DHT22;6894;52.196;9.904;2023-02-28T15:52:51;7.80;1.00
13642;DHT22;6894;52.196;9.904;2023-02-28T15:55:19;7.40;1.00
13642;DHT22;6894;52.196;9.904;2023-02-28T15:57:53;7.00;1.00
13642;DHT22;6894;52.196;9.904;2023-02-28T16:00:24;7.00;1.00
13642;DHT22;6894;52.196;9.904;2023-02-28T16:02:51;6.90;1.00
13642;DHT22;6894;52.196;9.904;2023-02-28T16:05:22;6.90;1.00
13642;DHT22;6894;52.196;9.904;2023-02-28T16:07:55;7.00;1.00
13642;DHT22;6894;52.196;9.904;2023-02-28T16:10:24;6.90;1.00
13642;DHT22;6894;52.196;9.904;2023-02-28T16:12:53;6.90;1.00
13642;DHT22;6894;52.196;9.904;2023-02-28T16:15:22;6.80;1.00
13642;DHT22;6894;52.196;9.904;2023-02-28T16:17:50;6.70;1.00
13642;DHT22;6894;52.196;9.904;2023-02-28T16:20:20;6.70;1.00
13642;DHT22;6894;52.196;9.904;2023-02-28T16:22:49;6.60;1.00
13642;DHT22;6894;52.196;9.904;2023-02-28T16:25:19;6.50;1.00
13642;DHT22;6894;52.196;9.904;2023-02-28T16:27:49;6.40;1.00
13642;DHT22;6894;52.196;9.904;2023-02-28T16:30:22;6.20;1.00
13642;DHT22;6894;52.196;9.904;2023-02-28T16:32:49;6.00;1.00
13642;DHT22;6894;52.196;9.904;2023-02-28T16:35:17;6.00;1.00
13642;DHT22;6894;52.196;9.904;2023-02-28T16:37:44;5.90;1.00
13642;DHT22;6894;52.196;9.904;2023-02-28T16:40:15;5.90;1.00
13642;DHT22;6894;52.196;9.904;2023-02-28T16:42:44;5.70;1.00
13642;DHT22;6894;52.196;9.904;2023-02-28T16:45:16;5.70;1.00
13642;DHT22;6894;52.196;9.904;2023-02-28T16:47:45;5.60;1.00
13642;DHT22;6894;52.196;9.904;2023-02-28T16:50:16;5.50;1.00